Time;durP1;ratioP1;P1;durP2;ratioP2;P2;SDS_P1;SDS_P2;PMS_P1;PMS_P2;Temp;Humidity;BMP_temperature;BMP_pressure;BME280_temperature;BME280_humidity;BME280_pressure;Samples;Min_cycle;Max_cycle;Signal;HPM_P1;HPM_P2
2023/08/10 00:01:54;;;;;;;3.40;2.30;;;;;;;10.03;100.00;98857.06;4173972;28;20044;-72
2023/08/10 00:03:55;;;;;;;5.63;2.42;;;;;;;9.99;100.00;98855.38;4172716;28;20048;-72
2023/08/10 00:05:55;;;;;;;2.83;2.28;;;;;;;9.95;100.00;98866.38;4173693;28;20041;-72
2023/08/10 00:07:56;;;;;;;4.45;2.00;;;;;;;9.91;100.00;98851.69;4174317;28;20070;-72
2023/08/10 00:09:57;;;;;;;9.88;2.53;;;;;;;9.88;100.00;98869.00;4173127;28;20153;-72
2023/08/10 00:11:57;;;;;;;3.50;2.50;;;;;;;9.83;100.00;98864.53;4173366;28;20045;-72
2023/08/10 00:13:57;;;;;;;3.53;2.20;;;;;;;9.82;100.00;98865.72;4173012;28;20568;-72
2023/08/10 00:15:58;;;;;;;3.40;1.90;;;;;;;9.82;100.00;98867.69;4174373;28;20072;-72
2023/08/10 00:17:58;;;;;;;2.40;2.00;;;;;;;9.82;100.00;98864.91;4175787;28;20072;-72
2023/08/10 00:19:59;;;;;;;3.25;2.25;;;;;;;9.81;100.00;98852.28;4173059;28;20041;-72
2023/08/10 00:21:59;;;;;;;4.10;2.22;;;;;;;9.81;100.00;98861.34;4173461;28;20041;-72
2023/08/10 00:23:59;;;;;;;3.42;2.10;;;;;;;9.78;100.00;98851.03;4172876;28;20053;-72
2023/08/10 00:26:00;;;;;;;4.82;2.10;;;;;;;9.76;100.00;98858.91;4172775;28;20076;-72
2023/08/10 00:28:00;;;;;;;2.00;1.80;;;;;;;9.79;100.00;98862.91;4173385;28;20041;-72
2023/08/10 00:30:01;;;;;;;4.80;2.20;;;;;;;9.75;100.00;98860.03;4174139;28;20481;-72
2023/08/10 00:32:01;;;;;;;2.22;1.70;;;;;;;9.67;100.00;98861.06;4172913;28;20102;-72
2023/08/10 00:34:02;;;;;;;3.40;1.80;;;;;;;9.57;100.00;98856.91;4172071;28;20479;-72
2023/08/10 00:36:09;;;;;;;3.28;2.50;;;;;;;9.45;100.00;98862.56;4173654;28;20135;-72
2023/08/10 00:38:09;;;;;;;4.18;1.80;;;;;;;9.35;100.00;98865.06;4173915;28;20044;-71
2023/08/10 00:40:12;;;;;;;4.38;1.92;;;;;;;9.36;100.00;98866.69;4171501;28;20025;-72
2023/08/10 00:42:12;;;;;;;3.60;2.20;;;;;;;9.36;100.00;98861.19;4172918;28;20123;-72
2023/08/10 00:44:13;;;;;;;3.85;1.92;;;;;;;9.36;100.00;98856.47;4172206;28;20118;-72
2023/08/10 00:46:14;;;;;;;7.13;1.98;;;;;;;9.39;100.00;98860.44;4173510;28;20036;-72
2023/08/10 00:48:14;;;;;;;4.47;2.10;;;;;;;9.47;100.00;98848.41;4173280;28;20029;-72
2023/08/10 00:50:15;;;;;;;3.95;1.83;;;;;;;9.48;100.00;98848.03;4172364;28;20310;-72
2023/08/10 00:52:15;;;;;;;5.50;2.20;;;;;;;9.44;100.00;98858.22;4172842;28;20042;-71
2023/08/10 00:54:16;;;;;;;2.53;1.80;;;;;;;9.44;100.00;98865.69;4171432;28;20135;-71
2023/08/10 00:56:17;;;;;;;3.33;2.08;;;;;;;9.42;100.00;98859.72;4173044;28;20252;-72
2023/08/10 00:58:19;;;;;;;7.75;2.00;;;;;;;9.40;100.00;98864.81;4173051;28;20033;-72
2023/08/10 01:00:19;;;;;;;3.92;2.60;;;;;;;9.40;100.00;98862.03;4173610;28;20036;-72
2023/08/10 01:02:20;;;;;;;4.40;2.28;;;;;;;9.46;100.00;98860.63;4172693;28;20032;-72
2023/08/10 01:04:20;;;;;;;3.30;1.88;;;;;;;9.46;100.00;98869.69;4172139;28;20060;-72
2023/08/10 01:06:48;;;;;;;3.67;2.03;;;;;;;9.50;100.00;98862.28;4172784;28;20470;-72
2023/08/10 01:09:02;;;;;;;3.13;1.60;;;;;;;9.52;100.00;98871.03;4172501;28;20427;-72
2023/08/10 01:11:11;;;;;;;3.42;1.80;;;;;;;9.49;100.00;98857.91;4173429;28;20530;-72
2023/08/10 01:13:30;;;;;;;3.65;2.08;;;;;;;9.44;100.00;98863.75;4171561;28;20075;-72
2023/08/10 01:15:43;;;;;;;2.85;2.20;;;;;;;9.49;100.00;98871.72;4173155;28;20504;-72
2023/08/10 01:17:51;;;;;;;3.90;1.70;;;;;;;9.52;100.00;98871.03;4173038;28;20048;-71
2023/08/10 01:19:53;;;;;;;4.07;1.95;;;;;;;9.55;100.00;98875.00;4172073;28;20051;-72
2023/08/10 01:22:26;;;;;;;2.97;1.90;;;;;;;9.55;100.00;98881.34;4172597;28;20052;-72
2023/08/10 01:24:32;;;;;;;4.32;2.45;;;;;;;9.55;100.00;98888.81;4142446;28;20137;-72
2023/08/10 01:26:33;;;;;;;3.88;2.28;;;;;;;9.53;100.00;98897.47;4171671;28;20412;-72
2023/08/10 01:28:33;;;;;;;5.28;2.70;;;;;;;9.47;100.00;98903.63;4171379;28;20064;-72
2023/08/10 01:30:34;;;;;;;3.63;2.40;;;;;;;9.45;100.00;98894.91;4173562;28;20049;-72
2023/08/10 01:32:35;;;;;;;3.42;2.20;;;;;;;9.46;100.00;98893.75;4173185;28;20057;-72
2023/08/10 01:34:35;;;;;;;4.47;2.80;;;;;;;9.51;100.00;98880.44;4172727;28;20051;-72
2023/08/10 01:36:35;;;;;;;3.70;2.20;;;;;;;9.60;100.00;98883.03;4172977;28;20064;-72
2023/08/10 01:38:35;;;;;;;5.13;2.50;;;;;;;9.63;100.00;98896.09;4172103;28;20099;-72
2023/08/10 01:40:36;;;;;;;4.40;2.53;;;;;;;9.65;100.00;98884.69;4172275;28;20049;-72
2023/08/10 01:42:37;;;;;;;4.40;2.63;;;;;;;9.72;100.00;98876.56;4171938;28;20053;-72
2023/08/10 01:44:37;;;;;;;2.03;1.83;;;;;;;9.80;100.00;98889.34;4172368;28;20396;-72
2023/08/10 01:46:40;;;;;;;3.13;2.40;;;;;;;9.82;100.00;98889.78;4172486;28;20052;-72
2023/08/10 01:48:45;;;;;;;4.15;2.50;;;;;;;9.84;100.00;98895.75;4172400;28;20106;-72
2023/08/10 01:50:48;;;;;;;6.40;2.97;;;;;;;9.92;100.00;98905.78;4172400;28;20049;-72
2023/08/10 01:52:51;;;;;;;5.10;2.40;;;;;;;9.98;100.00;98898.81;4170950;28;20142;-72
2023/08/10 01:54:52;;;;;;;3.72;2.60;;;;;;;10.01;100.00;98909.16;4172424;28;20505;-72
2023/08/10 01:56:52;;;;;;;5.15;2.30;;;;;;;10.00;100.00;98910.31;4172326;28;20143;-72
2023/08/10 01:58:53;;;;;;;3.90;2.20;;;;;;;10.02;100.00;98899.69;4172454;28;20203;-72
2023/08/10 02:00:53;;;;;;;3.15;2.13;;;;;;;10.04;100.00;98902.91;4172438;28;20370;-72
2023/08/10 02:02:53;;;;;;;6.65;2.45;;;;;;;10.04;100.00;98897.38;4171003;28;22004;-72
2023/08/10 02:04:54;;;;;;;4.05;3.15;;;;;;;10.06;100.00;98897.78;4172515;28;20049;-72
2023/08/10 02:06:54;;;;;;;3.45;2.00;;;;;;;10.08;100.00;98903.75;4172216;28;20584;-72
2023/08/10 02:08:54;;;;;;;3.60;2.42;;;;;;;10.06;100.00;98899.75;4172654;28;20079;-72
2023/08/10 02:10:55;;;;;;;4.03;2.58;;;;;;;10.06;100.00;98906.09;4172424;28;20061;-72
2023/08/10 02:12:55;;;;;;;2.67;2.03;;;;;;;10.06;100.00;98902.53;4171338;28;20481;-72
2023/08/10 02:14:58;;;;;;;3.60;2.40;;;;;;;10.01;100.00;98900.88;4172381;28;20412;-72
2023/08/10 02:16:59;;;;;;;4.63;2.13;;;;;;;9.94;100.00;98902.69;4171576;28;20049;-72
2023/08/10 02:18:59;;;;;;;8.27;2.80;;;;;;;9.90;100.00;98907.31;4173867;28;20043;-72
2023/08/10 02:21:00;;;;;;;5.32;2.40;;;;;;;9.91;100.00;98895.91;4173151;28;20075;-72
2023/08/10 02:23:01;;;;;;;4.55;2.80;;;;;;;9.90;100.00;98897.06;4171244;28;20234;-72
2023/08/10 02:25:01;;;;;;;7.00;2.28;;;;;;;9.87;100.00;98899.78;4172286;28;20056;-72
2023/08/10 02:27:02;;;;;;;4.05;2.08;;;;;;;9.90;100.00;98890.75;4172321;28;20070;-72
2023/08/10 02:29:03;;;;;;;3.95;2.45;;;;;;;9.90;100.00;98890.75;4172466;28;20060;-72
2023/08/10 02:31:04;;;;;;;3.22;2.47;;;;;;;9.92;100.00;98888.41;4172173;28;20399;-72
2023/08/10 02:33:05;;;;;;;4.72;2.50;;;;;;;9.92;100.00;98891.16;4171125;28;20057;-72
2023/08/10 02:35:06;;;;;;;4.28;2.10;;;;;;;9.92;100.00;98891.16;4171954;28;20103;-72
2023/08/10 02:37:06;;;;;;;2.60;2.20;;;;;;;9.86;100.00;98890.69;4171678;28;20045;-72
2023/08/10 02:39:06;;;;;;;4.35;2.40;;;;;;;9.84;100.00;98887.47;4171851;28;20040;-72
2023/08/10 02:41:06;;;;;;;5.10;2.40;;;;;;;9.85;100.00;98883.56;4172394;28;20139;-72
2023/08/10 02:43:07;;;;;;;5.15;2.65;;;;;;;9.82;100.00;98885.06;4171198;28;20180;-72
2023/08/10 02:45:08;;;;;;;2.97;2.47;;;;;;;9.75;100.00;98893.19;4171967;28;20052;-72
2023/08/10 02:47:08;;;;;;;6.68;3.20;;;;;;;9.66;100.00;98889.03;4171403;28;20488;-72
2023/08/10 02:49:09;;;;;;;3.55;2.47;;;;;;;9.65;100.00;98890.22;4172401;28;20045;-72
2023/08/10 02:51:09;;;;;;;4.00;2.17;;;;;;;9.68;100.00;98890.31;4171681;28;20045;-72
2023/08/10 02:53:10;;;;;;;5.75;2.75;;;;;;;9.65;100.00;98885.50;4171098;28;20801;-72
2023/08/10 02:55:10;;;;;;;4.75;2.40;;;;;;;9.63;100.00;98887.81;4172430;28;20052;-72
2023/08/10 02:57:10;;;;;;;4.97;2.40;;;;;;;9.65;100.00;98884.69;4172030;28;20057;-72
2023/08/10 02:59:11;;;;;;;5.38;2.47;;;;;;;9.63;100.00;98878.72;4172346;28;20045;-72
2023/08/10 03:01:11;;;;;;;3.67;2.35;;;;;;;9.64;100.00;98888.63;4172257;28;20051;-72
2023/08/10 03:03:11;;;;;;;3.20;2.55;;;;;;;9.59;100.00;98886.94;4171064;28;20049;-72
2023/08/10 03:05:12;;;;;;;2.88;2.40;;;;;;;9.63;100.00;98889.78;4173038;28;20049;-72
2023/08/10 03:07:13;;;;;;;3.25;2.28;;;;;;;9.63;100.00;98887.03;4175057;28;20087;-72
2023/08/10 03:09:13;;;;;;;3.38;2.55;;;;;;;9.55;100.00;98886.88;4175176;28;20440;-72
2023/08/10 03:11:13;;;;;;;3.15;2.40;;;;;;;9.52;100.00;98879.31;4174345;28;20069;-72
2023/08/10 03:13:14;;;;;;;8.48;2.60;;;;;;;9.49;100.00;98888.28;4173806;28;20436;-72
2023/08/10 03:15:14;;;;;;;6.05;2.72;;;;;;;9.48;100.00;98877.63;4175367;28;20417;-72
2023/08/10 03:17:15;;;;;;;5.20;3.05;;;;;;;9.46;100.00;98905.59;4174624;28;20071;-72
2023/08/10 03:19:15;;;;;;;6.78;2.85;;;;;;;9.38;100.00;98900.28;4174465;28;20037;-72
2023/08/10 03:21:15;;;;;;;6.95;2.42;;;;;;;9.32;100.00;98901.72;4174459;28;20339;-72
2023/08/10 03:23:16;;;;;;;2.72;2.20;;;;;;;9.32;100.00;98904.47;4173887;28;20522;-72
2023/08/10 03:25:16;;;;;;;5.47;3.13;;;;;;;9.27;100.00;98909.13;4174688;28;20036;-72
2023/08/10 03:27:17;;;;;;;3.33;2.67;;;;;;;9.27;100.00;98900.84;4174283;28;20053;-72
2023/08/10 03:29:17;;;;;;;4.15;2.72;;;;;;;9.29;100.00;98908.75;4175470;28;20040;-72
2023/08/10 03:31:17;;;;;;;3.97;2.40;;;;;;;9.27;100.00;98909.13;4175304;28;20068;-72
2023/08/10 03:33:18;;;;;;;4.93;3.10;;;;;;;9.23;100.00;98901.91;4174451;28;20056;-72
2023/08/10 03:35:18;;;;;;;9.40;3.38;;;;;;;9.24;100.00;98903.50;4174774;28;20508;-72
2023/08/10 03:37:18;;;;;;;5.00;2.92;;;;;;;9.25;100.00;98902.34;4174259;28;20044;-72
2023/08/10 03:39:19;;;;;;;4.28;2.90;;;;;;;9.28;100.00;98901.63;4174533;28;20057;-72
2023/08/10 03:41:19;;;;;;;4.20;2.55;;;;;;;9.33;100.00;98906.06;4174616;28;20050;-72
2023/08/10 03:43:19;;;;;;;3.55;2.55;;;;;;;9.34;100.00;98902.94;4172853;28;20056;-72
2023/08/10 03:45:20;;;;;;;3.72;2.58;;;;;;;9.33;100.00;98906.88;4173373;28;20128;-72
2023/08/10 03:47:21;;;;;;;5.05;2.63;;;;;;;9.31;100.00;98908.38;4175827;28;20048;-72
2023/08/10 03:49:22;;;;;;;7.82;2.70;;;;;;;9.32;100.00;98915.50;4175596;28;20389;-72
2023/08/10 03:51:23;;;;;;;4.00;2.90;;;;;;;9.31;100.00;98908.38;4173531;28;20114;-72
2023/08/10 03:53:23;;;;;;;5.78;2.95;;;;;;;9.28;100.00;98901.63;4173540;28;20520;-72
2023/08/10 03:55:25;;;;;;;6.47;2.80;;;;;;;9.29;100.00;98914.28;4173822;28;20045;-72
2023/08/10 03:57:25;;;;;;;4.20;3.00;;;;;;;9.31;100.00;98911.16;4174087;28;20037;-72
2023/08/10 03:59:25;;;;;;;4.05;3.00;;;;;;;9.29;100.00;98917.84;4173171;28;20124;-72
2023/08/10 04:01:27;;;;;;;4.60;2.80;;;;;;;9.30;100.00;98915.88;4169494;28;20044;-72
2023/08/10 04:03:27;;;;;;;4.35;3.22;;;;;;;9.28;100.00;98912.69;4165791;28;20094;-72
2023/08/10 04:05:27;;;;;;;4.60;3.28;;;;;;;9.31;100.00;98909.19;4171516;28;20136;-72
2023/08/10 04:07:28;;;;;;;4.57;2.80;;;;;;;9.34;100.00;98918.72;4173908;28;20507;-72
2023/08/10 04:09:29;;;;;;;4.97;2.88;;;;;;;9.33;100.00;98917.91;4174355;28;20127;-72
2023/08/10 04:11:29;;;;;;;3.53;2.65;;;;;;;9.33;100.00;98911.59;4174287;28;20045;-72
2023/08/10 04:13:30;;;;;;;3.95;2.70;;;;;;;9.31;100.00;98914.72;4172876;28;20102;-72
2023/08/10 04:15:30;;;;;;;4.90;3.00;;;;;;;9.24;100.00;98920.06;4173043;28;20130;-72
2023/08/10 04:17:31;;;;;;;4.38;3.35;;;;;;;9.21;100.00;98918.03;4172707;28;20052;-72
2023/08/10 04:19:31;;;;;;;5.72;3.00;;;;;;;9.16;100.00;98919.09;4172271;28;20041;-72
2023/08/10 04:21:31;;;;;;;6.43;3.08;;;;;;;9.15;100.00;98923.00;4173332;28;20422;-71
2023/08/10 04:23:32;;;;;;;7.95;3.28;;;;;;;9.12;100.00;98925.69;4171626;28;20059;-72
2023/08/10 04:25:32;;;;;;;3.47;2.72;;;;;;;9.11;100.00;98932.38;4172974;28;20041;-72
2023/08/10 04:27:33;;;;;;;4.72;3.00;;;;;;;9.07;100.00;98924.00;4173347;28;20049;-72
2023/08/10 04:29:34;;;;;;;4.28;2.78;;;;;;;9.05;100.00;98931.03;4172994;28;20471;-72
2023/08/10 04:31:34;;;;;;;5.63;2.97;;;;;;;9.03;100.00;98936.94;4172616;28;20135;-72
2023/08/10 04:33:34;;;;;;;6.97;3.67;;;;;;;9.00;100.00;98932.09;4172232;28;20140;-72
2023/08/10 04:35:35;;;;;;;5.25;3.30;;;;;;;9.02;100.00;98935.31;4173247;28;20076;-72
2023/08/10 04:37:36;;;;;;;3.70;2.83;;;;;;;9.05;100.00;98936.56;4173047;28;20067;-72
2023/08/10 04:39:37;;;;;;;4.40;2.65;;;;;;;9.08;100.00;98928.34;4172395;28;20079;-72
2023/08/10 04:41:37;;;;;;;5.25;2.80;;;;;;;9.11;100.00;98935.16;4173560;28;20060;-72
2023/08/10 04:43:38;;;;;;;7.82;3.00;;;;;;;9.19;100.00;98928.63;4171222;28;20461;-72
2023/08/10 04:45:38;;;;;;;5.65;2.88;;;;;;;9.21;100.00;98937.34;4173109;28;20434;-72
2023/08/10 04:47:39;;;;;;;9.35;3.00;;;;;;;9.19;100.00;98932.19;4172260;28;20084;-72
2023/08/10 04:49:39;;;;;;;5.20;2.92;;;;;;;9.23;100.00;98946.06;4173082;28;20095;-72
2023/08/10 04:51:40;;;;;;;6.20;3.15;;;;;;;9.20;100.00;98938.53;4172211;28;20040;-72
2023/08/10 04:53:40;;;;;;;6.28;3.25;;;;;;;9.22;100.00;98945.28;4172891;28;20361;-72
2023/08/10 04:55:40;;;;;;;5.80;3.15;;;;;;;9.23;100.00;98932.28;4173178;28;20703;-72
2023/08/10 04:57:41;;;;;;;6.85;3.50;;;;;;;9.30;100.00;98940.72;4172641;28;20056;-72
2023/08/10 04:59:41;;;;;;;6.65;4.00;;;;;;;9.32;100.00;98941.16;4172919;28;20107;-72
2023/08/10 05:01:42;;;;;;;8.30;3.22;;;;;;;9.37;100.00;98946.44;4172154;28;20136;-72
2023/08/10 05:03:42;;;;;;;4.50;3.08;;;;;;;9.41;100.00;98941.78;4170783;28;20463;-72
2023/08/10 05:05:43;;;;;;;5.35;3.17;;;;;;;9.46;100.00;98957.28;4173574;28;20053;-72
2023/08/10 05:07:43;;;;;;;6.70;3.20;;;;;;;9.44;100.00;98954.88;4126141;28;20072;-72
2023/08/10 05:09:44;;;;;;;7.47;3.83;;;;;;;9.41;100.00;98955.59;4176688;28;20524;-72
2023/08/10 05:11:44;;;;;;;4.03;3.13;;;;;;;9.45;100.00;98952.91;4172821;28;20053;-72
2023/08/10 05:13:44;;;;;;;6.50;2.90;;;;;;;9.52;100.00;98961.38;4170383;28;20657;-72
2023/08/10 05:15:45;;;;;;;3.35;2.75;;;;;;;9.56;100.00;98956.72;4173344;28;20503;-72
2023/08/10 05:17:45;;;;;;;6.03;3.28;;;;;;;9.66;100.00;98952.59;4172951;28;20128;-72
2023/08/10 05:19:45;;;;;;;4.15;2.78;;;;;;;9.77;100.00;98959.97;4170517;28;20114;-72
2023/08/10 05:21:46;;;;;;;6.50;3.10;;;;;;;9.83;100.00;98961.28;4173191;28;20067;-72
2023/08/10 05:23:46;;;;;;;4.35;3.00;;;;;;;9.90;100.00;98963.41;4173199;28;20107;-72
2023/08/10 05:25:46;;;;;;;7.15;3.00;;;;;;;10.00;100.00;98968.34;4172254;28;20060;-72
2023/08/10 05:27:47;;;;;;;6.68;3.13;;;;;;;10.10;100.00;98964.25;4170831;28;20404;-72
2023/08/10 05:29:48;;;;;;;3.97;3.10;;;;;;;10.20;100.00;98971.94;4171080;28;20365;-72
2023/08/10 05:31:48;;;;;;;6.40;3.50;;;;;;;10.32;100.00;98973.78;4171913;28;20144;-72
2023/08/10 05:33:48;;;;;;;4.53;3.38;;;;;;;10.44;100.00;98970.88;4171574;28;20049;-72
2023/08/10 05:35:49;;;;;;;3.85;3.30;;;;;;;10.58;100.00;98973.09;4171946;28;20118;-72
2023/08/10 05:37:49;;;;;;;4.05;3.30;;;;;;;10.63;100.00;98967.28;4172213;28;20161;-72
2023/08/10 05:39:49;;;;;;;4.38;3.30;;;;;;;10.66;100.00;98972.06;4171196;28;20081;-72
2023/08/10 05:41:50;;;;;;;4.45;3.00;;;;;;;10.65;100.00;98974.06;4171399;28;20455;-72
2023/08/10 05:43:50;;;;;;;4.28;3.28;;;;;;;10.65;100.00;98984.31;4171939;28;20049;-72
2023/08/10 05:45:50;;;;;;;3.85;2.78;;;;;;;10.66;100.00;98981.19;4170273;28;20566;-72
2023/08/10 05:47:51;;;;;;;4.10;3.28;;;;;;;10.67;100.00;98979.22;4171533;28;20052;-72
2023/08/10 05:49:51;;;;;;;4.82;3.40;;;;;;;10.73;100.00;98988.03;4170811;28;20480;-72
2023/08/10 05:51:51;;;;;;;3.72;3.22;;;;;;;10.75;100.00;98988.44;4171730;28;20061;-72
2023/08/10 05:53:51;;;;;;;3.50;2.85;;;;;;;10.74;100.00;98984.88;4170726;28;20060;-72
2023/08/10 05:55:52;;;;;;;3.80;2.95;;;;;;;10.77;100.00;98981.41;4172012;28;20140;-72
2023/08/10 05:57:52;;;;;;;7.28;3.20;;;;;;;10.76;100.00;98987.28;4172298;28;20245;-72
2023/08/10 05:59:53;;;;;;;4.75;2.95;;;;;;;10.85;100.00;98985.09;4172030;28;20045;-72
2023/08/10 06:01:54;;;;;;;5.03;3.15;;;;;;;10.91;100.00;98994.69;4172750;28;20045;-72
2023/08/10 06:03:54;;;;;;;4.75;3.20;;;;;;;11.01;100.00;98990.53;4171341;28;20076;-72
2023/08/10 06:05:54;;;;;;;4.45;3.17;;;;;;;11.05;100.00;98994.94;4172226;28;20548;-72
2023/08/10 06:07:55;;;;;;;3.80;3.05;;;;;;;11.13;100.00;98991.13;4172178;28;20076;-72
2023/08/10 06:09:55;;;;;;;4.45;3.30;;;;;;;11.23;100.00;98984.97;4172270;28;20079;-72
2023/08/10 06:11:55;;;;;;;5.22;3.60;;;;;;;11.29;100.00;98981.91;4172112;28;20051;-72
2023/08/10 06:13:56;;;;;;;5.10;3.20;;;;;;;11.40;100.00;98989.22;4171244;28;20036;-72
2023/08/10 06:15:56;;;;;;;4.32;3.42;;;;;;;11.50;100.00;98979.47;4172270;28;20045;-72
2023/08/10 06:17:57;;;;;;;5.43;3.42;;;;;;;11.60;100.00;98984.41;4172014;28;20505;-72
2023/08/10 06:19:57;;;;;;;5.82;3.55;;;;;;;11.69;100.00;98984.13;4171287;28;20267;-72
2023/08/10 06:21:57;;;;;;;6.80;3.25;;;;;;;11.77;100.00;98988.59;4172292;28;20053;-72
2023/08/10 06:23:58;;;;;;;4.40;3.63;;;;;;;11.88;100.00;98986.81;4171367;28;20401;-72
2023/08/10 06:26:00;;;;;;;8.32;3.60;;;;;;;11.92;100.00;98982.13;4172004;28;20049;-72
2023/08/10 06:28:00;;;;;;;;;;;;;;;12.05;100.00;98986.25;4172028;28;20154;-72
2023/08/10 06:30:01;;;;;;;3.60;2.88;;;;;;;12.14;100.00;98988.75;4172037;28;20062;-72
2023/08/10 06:32:07;;;;;;;4.03;2.90;;;;;;;12.29;100.00;98990.53;4172209;28;20044;-72
2023/08/10 06:34:07;;;;;;;5.82;3.00;;;;;;;12.44;100.00;98983.19;4171308;28;20036;-72
2023/08/10 06:36:10;;;;;;;4.25;2.75;;;;;;;12.59;100.00;98984.97;4171830;28;20033;-72
2023/08/10 06:38:11;;;;;;;3.67;2.65;;;;;;;12.69;100.00;98986.25;4172133;28;20036;-72
2023/08/10 06:40:14;;;;;;;4.57;3.38;;;;;;;12.73;100.00;98991.84;4174903;28;20392;-72
2023/08/10 06:42:17;;;;;;;;;;;;;;;12.71;100.00;98994.19;4175354;28;20424;-72
2023/08/10 06:44:17;;;;;;;4.95;3.05;;;;;;;12.63;100.00;98991.34;4173671;28;20242;-72
2023/08/10 06:46:18;;;;;;;5.57;3.50;;;;;;;12.63;100.00;99004.41;4175512;28;20044;-72
2023/08/10 06:48:18;;;;;;;5.43;3.65;;;;;;;12.62;100.00;99003.63;4175096;28;20375;-72
2023/08/10 06:50:19;;;;;;;5.50;2.92;;;;;;;12.72;100.00;98999.38;4175103;28;20021;-72
2023/08/10 06:52:19;;;;;;;4.22;3.45;;;;;;;12.88;100.00;99007.47;4175060;28;20455;-72
2023/08/10 06:54:20;;;;;;;6.00;3.60;;;;;;;13.04;100.00;99007.25;4173823;28;20029;-72
2023/08/10 06:56:20;;;;;;;3.63;2.90;;;;;;;13.12;100.00;98995.03;4175053;28;20060;-72
2023/08/10 06:58:20;;;;;;;4.40;3.25;;;;;;;13.15;100.00;99003.38;4174629;28;20494;-72
2023/08/10 07:00:22;;;;;;;5.20;3.42;;;;;;;13.20;100.00;99002.28;4175231;28;20366;-72
2023/08/10 07:02:22;;;;;;;4.78;3.08;;;;;;;13.45;100.00;99006.06;4174730;28;20044;-72
2023/08/10 07:04:23;;;;;;;4.85;3.00;;;;;;;13.60;100.00;98995.88;4174143;28;20037;-72
2023/08/10 07:06:23;;;;;;;5.35;3.10;;;;;;;13.62;100.00;98995.47;4174878;28;20417;-72
2023/08/10 07:08:23;;;;;;;4.28;3.28;;;;;;;13.57;100.00;99002.22;4174950;28;20037;-72
2023/08/10 07:10:24;;;;;;;5.78;3.70;;;;;;;13.56;100.00;99003.38;4174458;28;20429;-72
2023/08/10 07:12:24;;;;;;;5.82;3.70;;;;;;;13.69;100.00;98998.31;4174058;28;20048;-72
2023/08/10 07:14:24;;;;;;;6.68;3.92;;;;;;;13.85;100.00;99006.38;4175046;28;20060;-72
2023/08/10 07:16:25;;;;;;;6.03;3.97;;;;;;;13.89;100.00;99005.19;4174793;28;20047;-72
2023/08/10 07:18:25;;;;;;;5.50;4.05;;;;;;;13.98;100.00;99002.06;4174664;28;20043;-72
2023/08/10 07:20:25;;;;;;;5.38;3.50;;;;;;;14.02;100.00;99005.69;4174908;28;20512;-72
2023/08/10 07:22:26;;;;;;;5.28;3.80;;;;;;;14.10;100.00;99006.53;4174391;28;20041;-72
2023/08/10 07:24:26;;;;;;;5.25;3.53;;;;;;;14.21;100.00;99007.38;4174180;28;20077;-72
2023/08/10 07:26:26;;;;;;;6.40;3.90;;;;;;;14.27;100.00;99005.81;4174475;28;20388;-72
2023/08/10 07:28:27;;;;;;;6.40;3.30;;;;;;;14.29;100.00;99007.03;4174079;28;20124;-72
2023/08/10 07:30:28;;;;;;;5.38;3.58;;;;;;;14.31;100.00;99010.25;4174693;28;20464;-72
2023/08/10 07:32:29;;;;;;;5.25;3.65;;;;;;;14.34;100.00;99009.44;4174230;28;20135;-72
2023/08/10 07:34:29;;;;;;;4.72;3.70;;;;;;;14.50;100.00;99013.94;4174643;28;20108;-72
2023/08/10 07:36:30;;;;;;;3.70;3.10;;;;;;;14.55;100.00;99010.75;4174667;28;20041;-72
2023/08/10 07:38:30;;;;;;;5.20;3.45;;;;;;;14.67;100.00;99013.19;4173704;28;20041;-72
2023/08/10 07:40:30;;;;;;;4.65;3.30;;;;;;;14.76;100.00;99019.19;4174240;28;20407;-72
2023/08/10 07:42:30;;;;;;;5.78;4.15;;;;;;;14.85;100.00;99016.81;4173957;28;20057;-72
2023/08/10 07:44:31;;;;;;;5.70;4.03;;;;;;;14.93;100.00;99011.28;4173845;28;20091;-72
2023/08/10 07:46:32;;;;;;;5.75;3.53;;;;;;;15.01;100.00;99012.91;4174798;28;20053;-72
2023/08/10 07:48:32;;;;;;;4.43;3.22;;;;;;;15.11;100.00;99015.69;4174029;28;20040;-73
2023/08/10 07:50:33;;;;;;;4.70;3.58;;;;;;;15.14;100.00;99009.34;4173483;28;20602;-73
2023/08/10 07:52:33;;;;;;;5.43;3.90;;;;;;;15.21;100.00;99010.53;4173772;28;20049;-72
2023/08/10 07:54:34;;;;;;;6.78;3.83;;;;;;;15.32;100.00;99017.72;4174355;28;20045;-72
2023/08/10 07:56:34;;;;;;;7.22;4.28;;;;;;;15.39;100.00;99014.94;4174115;28;20806;-72
2023/08/10 07:58:35;;;;;;;7.07;3.67;;;;;;;15.48;100.00;99011.78;4173654;28;20131;-72
2023/08/10 08:00:38;;;;;;;10.30;4.30;;;;;;;15.56;100.00;99016.16;4174434;28;20048;-73
2023/08/10 08:02:39;;;;;;;5.70;4.20;;;;;;;15.60;100.00;99021.72;4173395;28;20045;-73
2023/08/10 08:04:39;;;;;;;7.10;4.57;;;;;;;15.63;100.00;99018.94;4173235;28;20064;-73
2023/08/10 08:06:39;;;;;;;5.15;4.20;;;;;;;15.68;100.00;99024.13;4173979;28;20509;-72
2023/08/10 08:08:40;;;;;;;9.50;4.78;;;;;;;15.69;100.00;99014.56;4174203;28;20033;-72
2023/08/10 08:10:41;;;;;;;7.03;4.60;;;;;;;15.70;100.00;99018.94;4173508;28;20392;-73
2023/08/10 08:12:42;;;;;;;5.55;4.10;;;;;;;15.68;100.00;99024.13;4172549;28;20506;-73
2023/08/10 08:14:43;;;;;;;4.82;3.70;;;;;;;15.68;100.00;99017.75;4174102;28;20053;-73
2023/08/10 08:16:43;;;;;;;7.43;4.80;;;;;;;15.78;100.00;99019.75;4173700;28;20033;-73
2023/08/10 08:18:48;;;;;;;7.82;3.33;;;;;;;15.84;100.00;99008.97;4173751;28;20417;-73
2023/08/10 08:20:49;;;;;;;5.10;3.72;;;;;;;15.87;100.00;99010.97;4173672;28;20300;-72
2023/08/10 08:22:49;;;;;;;6.25;4.45;;;;;;;15.96;100.00;99000.97;4173178;28;20309;-73
2023/08/10 08:24:51;;;;;;;6.22;4.38;;;;;;;16.03;100.00;98997.38;4173699;28;20056;-72
2023/08/10 08:26:51;;;;;;;7.30;4.70;;;;;;;16.07;100.00;99011.34;4173752;28;20044;-72
2023/08/10 08:28:52;;;;;;;7.35;4.00;;;;;;;16.15;100.00;99002.56;4173852;28;20515;-73
2023/08/10 08:30:53;;;;;;;13.32;4.05;;;;;;;16.25;100.00;99006.50;4174109;28;20373;-73
2023/08/10 08:32:53;;;;;;;6.07;4.03;;;;;;;16.27;100.00;99004.09;4172967;28;20121;-73
2023/08/10 08:34:53;;;;;;;8.02;3.53;;;;;;;16.31;100.00;99004.09;4173806;28;20151;-73
2023/08/10 08:36:54;;;;;;;5.25;4.10;;;;;;;16.40;100.00;99008.06;4173671;28;20083;-72
2023/08/10 08:38:54;;;;;;;7.30;4.25;;;;;;;16.43;100.00;99006.44;4173013;28;20191;-73
2023/08/10 08:40:55;;;;;;;6.10;4.45;;;;;;;16.48;100.00;99003.25;4173895;28;20037;-73
2023/08/10 08:42:58;;;;;;;6.60;4.35;;;;;;;16.57;100.00;98998.03;4172811;28;20037;-73
2023/08/10 08:44:58;;;;;;;11.43;4.03;;;;;;;16.62;100.00;99000.38;4173410;28;20045;-73
2023/08/10 08:46:59;;;;;;;5.32;3.47;;;;;;;16.67;100.00;98993.59;4172479;28;20067;-73
2023/08/10 08:49:04;;;;;;;6.18;3.67;;;;;;;16.64;100.00;98989.63;4173352;28;20049;-73
2023/08/10 08:51:05;;;;;;;4.35;3.42;;;;;;;16.71;100.00;98986.78;4172919;28;20094;-73
2023/08/10 08:53:07;;;;;;;6.22;4.07;;;;;;;16.78;100.00;98992.34;4172796;28;20644;-73
2023/08/10 08:55:11;;;;;;;5.70;3.70;;;;;;;16.76;100.00;98985.59;4173090;28;20049;-73
2023/08/10 08:57:11;;;;;;;8.27;4.35;;;;;;;16.81;100.00;98988.75;4173095;28;20395;-73
2023/08/10 08:59:12;;;;;;;6.20;3.40;;;;;;;16.83;100.00;98989.13;4173140;28;20041;-73
2023/08/10 09:01:13;;;;;;;5.43;3.97;;;;;;;16.83;100.00;98989.13;4173484;28;20237;-73
2023/08/10 09:03:14;;;;;;;8.63;4.70;;;;;;;17.01;100.00;98986.22;4172503;28;20551;-73
2023/08/10 09:05:15;;;;;;;5.10;4.00;;;;;;;17.11;100.00;98971.38;4172884;28;20106;-72
2023/08/10 09:07:15;;;;;;;8.23;4.15;;;;;;;17.18;100.00;98978.13;4173243;28;20337;-73
2023/08/10 09:09:17;;;;;;;4.70;4.00;;;;;;;17.23;100.00;98975.72;4172558;28;20505;-73
2023/08/10 09:11:17;;;;;;;5.20;3.47;;;;;;;17.34;100.00;98976.41;4172836;28;20139;-73
2023/08/10 09:13:21;;;;;;;11.07;3.75;;;;;;;17.53;100.00;98974.25;4172592;28;20103;-73
2023/08/10 09:15:22;;;;;;;11.30;4.13;;;;;;;17.56;98.71;98982.63;4172805;28;20403;-73
2023/08/10 09:17:25;;;;;;;6.50;3.67;;;;;;;17.55;99.25;98981.06;4173143;28;20049;-73
2023/08/10 09:19:25;;;;;;;6.20;3.95;;;;;;;17.71;97.19;98980.53;4172771;28;20060;-73
2023/08/10 09:21:31;;;;;;;5.07;3.45;;;;;;;17.73;95.41;98968.94;4172015;28;20041;-73
2023/08/10 09:23:35;;;;;;;5.45;3.67;;;;;;;17.98;97.86;98965.88;4170588;28;20048;-73
2023/08/10 09:25:38;;;;;;;7.05;3.42;;;;;;;18.19;98.41;98968.44;4172511;28;20047;-73
2023/08/10 09:27:39;;;;;;;4.72;3.40;;;;;;;18.24;94.41;98965.19;4173063;28;20807;-73